createdAt,value
2022-10-07T00:07:38.949Z,100
2022-10-07T00:22:35.388Z,100
2022-10-07T00:37:31.353Z,100
2022-10-07T00:52:27.278Z,100
2022-10-07T01:07:23.615Z,100
2022-10-07T01:22:19.552Z,100
2022-10-07T01:37:15.540Z,100
2022-10-07T01:52:11.721Z,100
2022-10-07T02:07:07.327Z,100
2022-10-07T02:22:03.579Z,100
2022-10-07T02:36:59.766Z,100
2022-10-07T02:51:55.763Z,100
2022-10-07T03:06:52.087Z,100
2022-10-07T03:21:48.433Z,100
2022-10-07T03:51:41.322Z,100
2022-10-07T04:06:37.362Z,100
2022-10-07T04:21:34.474Z,100
2022-10-07T04:36:30.696Z,100
2022-10-07T04:51:27.320Z,100
2022-10-07T05:06:23.483Z,100
2022-10-07T05:21:19.803Z,100
2022-10-07T05:36:15.752Z,100
2022-10-07T05:51:12.265Z,100
2022-10-07T06:06:08.668Z,100
2022-10-07T06:21:05.017Z,100
2022-10-07T06:36:04.404Z,100
2022-10-07T06:50:58.396Z,100
2022-10-07T07:05:55.063Z,100
2022-10-07T07:20:51.406Z,100
2022-10-07T07:35:47.390Z,100
2022-10-07T07:50:43.500Z,100
2022-10-07T08:05:39.788Z,100
2022-10-07T08:20:36.152Z,100
2022-10-07T08:35:32.643Z,100
2022-10-07T08:50:29.090Z,100
2022-10-07T09:05:25.735Z,83.97
2022-10-07T09:20:21.962Z,79.59
2022-10-07T09:35:18.627Z,75.09
2022-10-07T09:50:16.042Z,69.1
2022-10-07T10:05:12.825Z,65.51
2022-10-07T10:20:09.487Z,72.45
2022-10-07T10:35:05.820Z,65.95
2022-10-07T10:50:02.122Z,58.16
2022-10-07T11:04:59.047Z,51.52
2022-10-07T11:19:56.002Z,51.6
2022-10-07T11:34:54.645Z,51.56
2022-10-07T11:49:48.413Z,52.93
2022-10-07T12:04:44.913Z,49.03
2022-10-07T12:19:42.100Z,49.57
2022-10-07T12:34:38.257Z,46.44
2022-10-07T12:49:34.461Z,52.33
2022-10-07T13:04:30.828Z,55.11
2022-10-07T13:19:26.759Z,54.42
2022-10-07T13:34:22.862Z,55.64
2022-10-07T13:49:19.163Z,57.35
2022-10-07T14:04:15.422Z,57.99
2022-10-07T14:19:11.949Z,59.13
2022-10-07T14:34:07.416Z,55.83
2022-10-07T14:49:03.876Z,53.5
2022-10-07T15:04:00.721Z,52.82
2022-10-07T15:18:56.868Z,53.21
2022-10-07T15:33:52.816Z,52.41
2022-10-07T15:48:49.065Z,52.19
2022-10-07T16:03:44.743Z,52.7
2022-10-07T16:18:40.686Z,51.9
2022-10-07T16:33:36.801Z,54.21
2022-10-07T16:48:33.500Z,57.79
2022-10-07T17:03:29.239Z,66.99
2022-10-07T17:18:24.979Z,71.31
2022-10-07T17:33:20.703Z,64.91
2022-10-07T17:48:16.394Z,72.34
2022-10-07T18:03:12.081Z,80.18
2022-10-07T18:18:07.745Z,86.16
2022-10-07T18:33:03.547Z,87.37
2022-10-07T18:47:59.299Z,90.36
2022-10-07T19:02:55.669Z,91.51
2022-10-07T19:17:51.755Z,90.78
2022-10-07T19:32:50.000Z,89.79
2022-10-07T19:47:44.700Z,93.42
2022-10-07T20:02:40.388Z,98.99
2022-10-07T20:17:36.440Z,100
2022-10-07T20:32:32.148Z,100
2022-10-07T20:47:28.355Z,100
2022-10-07T21:02:24.007Z,100
2022-10-07T21:17:19.877Z,100
2022-10-07T21:32:16.135Z,100
2022-10-07T21:47:12.313Z,100
2022-10-07T22:02:08.011Z,100
2022-10-07T22:17:04.353Z,100
2022-10-07T22:32:00.641Z,100
2022-10-07T22:46:56.535Z,100
2022-10-07T23:01:52.723Z,100
2022-10-07T23:16:49.582Z,100
2022-10-07T23:31:45.161Z,100
2022-10-07T23:46:41.258Z,100
